Gladwin, Iowa
Current Conditions -  °F | °C
As of 11:35 PM on Wednesday 26 Nov 2014 (Local Time) from KAWG Reporting Station
Haze Haze  
Wind Chill: -8°   Ceiling: 2300
Heat Index: -3°   Visibility: 2.5mi
Dew Point: -3°   Wind: 9mph
Humidity: 100%   Direction: 310°NW
Pressure: 30.3"   Gusts: NA
Location:  41.2636°N, 91.4145°W
Report Text: KAWG 270535Z AUTO 31008KT 2 1/2SM BR FEW006 SCT016 BKN023 M03/M03 A3030 RMK AO2
Loading
Personal Weather Stations






























Interactive Weather Map New forecast layout! Learn more

10-Day Weather Forecast

Advertisements
Track Severe Weather on mobile